Accueil
METAR-TAF:

METAR-TAF

Aéroports :

Aéroport de Zarzaïtine - In Amenas

In Amenas, Algérie

latitude: 28-03N, longitude: 009-38E, altitude: 562 m

Observation

Le bulletin a été fait il y a 1 heure et 1 minutes, à 12:00 UTC
Vent 17 kt de sud-est
Température 19°C
Humidité 16%
Pression 1019 hPa
Visibilité: 8000 m

METAR: DAUZ 201200Z 14017KT 8000 NSC 19/M07 Q1019

Heure: 14:01 (13:01 UTC)

Prévision

Le bulletin a été fait il y a 2 heures et 1 minutes, à 11:00 UTC
Prévision valable du 20 à 12 UTC au 21 à 12 UTC
Vent 12 kt de sud-est
Visibilité: 8000 m
Temporairement
du 20 à 12 UTC au 20 à 17 UTC
Vent 24 kt de est/sud-est
Visibilité: 3000 m
Chasse-sable basse

TAF: DAUZ 201100Z 2012/2112 14012KT 8000 NSC TEMPO 2012/2017 12024KT 3000 DRSA

Observations et prévisions météorologiques de plus de 4000 aéroports (messages METAR et TAF).

Les stations disponibles sont représentées par des disques jaunes et rouges sur la carte.

Passer la souris dessus pour voir le nom de la station.

Cliquer dessus pour voir les observations et prévisions météorologiques.

Pour changer de carte: cliquez sur les boutons verts avec une croix noire pour zoomer, sur le bouton vert avec un tiret pour effectuer un zoom arrière, ou sur les flèches vertes pour les cartes adjacentes.


METAR-TAF: